This is the latest recevied weather packets stored in our database for station/object SQ3MKP-13. If no packets are shown the sender has not sent any weather packets the latest 10 day(s).
| Time | Temp. | Humidity | Pressure | Rain* | Wind** | Luminosity | Snow |
|---|---|---|---|---|---|---|---|
| 1777774448 | 9.44° C | 73% | 1006.3 hPa | - | - | - | - |
| 1777774147 | 8.89° C | 73% | 1006.3 hPa | - | - | - | - |
| 1777773847 | 8.89° C | 74% | 1006.4 hPa | - | - | - | - |
| 1777772944 | 9.44° C | 72% | 1006.5 hPa | - | - | - | - |
| 1777772342 | 9.44° C | 73% | 1006.6 hPa | - | - | - | - |
| 1777769033 | 10.56° C | 67% | 1006.9 hPa | - | - | - | - |
| 1777768130 | 10.56° C | 68% | 1006.9 hPa | - | - | - | - |
| 1777766625 | 11.11° C | 65% | 1007.1 hPa | - | - | - | - |
| 1777764519 | 11.67° C | 62% | 1007.3 hPa | - | - | - | - |
| 1777764218 | 11.67° C | 62% | 1007.4 hPa | - | - | - | - |
| 1777761811 | 11.67° C | 61% | 1007.8 hPa | - | - | - | - |
| 1777761208 | 12.78° C | 58% | 1007.8 hPa | - | - | - | - |
| 1777760607 | 13.33° C | 53% | 1007.9 hPa | - | - | - | - |
| 1777760005 | 13.33° C | 53% | 1007.8 hPa | - | - | - | - |
| 1777759404 | 13.33° C | 53% | 1007.9 hPa | - | - | - | - |
| 1777758802 | 13.89° C | 53% | 1007.9 hPa | - | - | - | - |
| 1777758501 | 14.44° C | 51% | 1007.9 hPa | - | - | - | - |
| 1777758200 | 15° C | 48% | 1007.9 hPa | - | - | - | - |
| 1777757899 | 15.56° C | 46% | 1008 hPa | - | - | - | - |
| 1777757297 | 15.56° C | 46% | 1008 hPa | - | - | - | - |
| 1777756395 | 15.56° C | 47% | 1008.1 hPa | - | - | - | - |
| 1777755793 | 15.56° C | 47% | 1008.2 hPa | - | - | - | - |
| 1777754890 | 16.11° C | 47% | 1008.2 hPa | - | - | - | - |
| 1777754288 | 16.11° C | 47% | 1008.3 hPa | - | - | - | - |
| 1777751280 | 17.78° C | 43% | 1008.3 hPa | - | - | - | - |
* Rain since midnight (hover to see other rain measurements)
** Current wind speed in m/s (hover to see current wind gust speed)